Погода Монтес Кларосна 2 недели

Минас-Жерайс, Бразилия

19 июля-01 августа
  • 19июля
    Сегодня
    +14°
    +29°
    Ясно и безоблачно
    ВремяПогодаТемператураВлажностьДавлениеВетер, м/сВероятность осадков
    00:00Небольшая облачность+19°C62 %702 мм1.5 м/с5 %
    03:00Облачно с прояснениями+15°C64 %702 мм1.8 м/с5 %
    06:00Ясно и безоблачно+14°C68 %702 мм1.8 м/с5 %
    09:00Ясно и безоблачно+21°C47 %705 мм0.9 м/с5 %
    12:00Ясно и безоблачно+26°C35 %705 мм2.9 м/с5 %
    15:00Ясно и безоблачно+28°C30 %703 мм1.5 м/с5 %
    18:00Ясно и безоблачно+24°C37 %703 мм2.4 м/с5 %
    21:00Практически безоблачно+20°C53 %704 мм1.0 м/с5 %
  • 20июля
    Суббота
    +13°
    +27°
    Ясно и безоблачно
    ВремяПогодаТемператураВлажностьДавлениеВетер, м/сВероятность осадков
    00:00Ясно и безоблачно+17°C66 %703 мм1.8 м/с5 %
    03:00Ясно и безоблачно+16°C71 %702 мм2.2 м/с5 %
    06:00Ясно и безоблачно+14°C79 %702 мм2.0 м/с5 %
    09:00Практически безоблачно+20°C65 %705 мм1.3 м/с4 %
    12:00Ясно и безоблачно+25°C43 %704 мм3.2 м/с4 %
    15:00Ясно и безоблачно+27°C38 %703 мм1.5 м/с5 %
    18:00Ясно и безоблачно+23°C43 %702 мм2.6 м/с5 %
    21:00Ясно и безоблачно+20°C54 %702 мм1.0 м/с5 %
  • 21июля
    Воскресенье
    +15°
    +28°
    Ясно и безоблачно
    ВремяПогодаТемператураВлажностьДавлениеВетер, м/сВероятность осадков
    00:00Ясно и безоблачно+17°C64 %703 мм1.8 м/с5 %
    03:00Ясно и безоблачно+15°C72 %701 мм1.6 м/с5 %
    06:00Ясно и безоблачно+13°C78 %702 мм1.6 м/с5 %
    09:00Ясно и безоблачно+20°C52 %704 мм1.1 м/с5 %
    12:00Ясно и безоблачно+25°C35 %704 мм3.6 м/с5 %
    15:00Ясно и безоблачно+28°C34 %702 мм1.6 м/с5 %
    18:00Ясно и безоблачно+23°C47 %702 мм2.9 м/с5 %
    21:00Ясно и безоблачно+20°C67 %703 мм1.3 м/с5 %
  • 22июля
    Понедельник
    +14°
    +29°
    Ясно и безоблачно
    ВремяПогодаТемператураВлажностьДавлениеВетер, м/сВероятность осадков
    00:00Ясно и безоблачно+18°C80 %703 мм2.3 м/с5 %
    03:00Ясно и безоблачно+16°C90 %702 мм2.3 м/с5 %
    06:00Небольшая облачность+15°C93 %703 мм2.7 м/с5 %
    09:00Практически безоблачно+21°C63 %705 мм1.2 м/с3 %
    12:00Облачно с прояснениями+26°C41 %705 мм3.0 м/с5 %
    15:00Ясно и безоблачно+28°C36 %703 мм1.4 м/с5 %
    18:00Ясно и безоблачно+24°C44 %703 мм2.1 м/с5 %
    21:00Ясно и безоблачно+21°C55 %704 мм1.0 м/с5 %
  • 23июля
    Вторник
    +15°
    +29°
    Ясно и безоблачно
    ВремяПогодаТемператураВлажностьДавлениеВетер, м/сВероятность осадков
    00:00Ясно и безоблачно+18°C62 %703 мм1.7 м/с5 %
    03:00Ясно и безоблачно+16°C66 %702 мм1.9 м/с5 %
    06:00Ясно и безоблачно+15°C66 %703 мм2.0 м/с5 %
    09:00Ясно и безоблачно+20°C50 %705 мм0.9 м/с5 %
    12:00Ясно и безоблачно+27°C33 %705 мм3.4 м/с5 %
    15:00Ясно и безоблачно+28°C27 %703 мм1.6 м/с5 %
    18:00Ясно и безоблачно+24°C36 %704 мм3.0 м/с5 %
    21:00Ясно и безоблачно+20°C48 %704 мм1.1 м/с5 %
Мы используем cookies
Соглашаюсь